Aeroporto :
LOGIN :

Iscrizione | Disclaimer

   EN    FR    IT 

 










Sommario :    VFR   VFR Marginale   IFR   IFR Intensivo   IFR Molto Intensivo
Visibilità : 
Base nubi : 
>= 8 km
>= 3000ft
5 / 8 km
1000 / 3000 ft
1500m / 5 km
500 / 1000 ft
800 / 1500m
200 / 500 ft
< 800m
< 200 ft
Simboli :   Temporali  Nebbia  Neve Forte  Precipitazioni Forti  Vento > 20 kt
SIGMETs :   Varie  Temporali  Ghiacco  Turbolenza  Onda orograficha  Ceneri Vulcaniche






- Altitudine del aeroporto : 741 ft
- Codice IATA : PED


LKPD - Pardubice AB

ULTIMO METAR :
  • 270600Z 28004KT 240V310 CAVOK 11/08 Q1033 NOSIG RMK BLU BLU

METARs OBSOLETI :
  • 270530Z 25003KT CAVOK 10/07 Q1033 NOSIG RMK BLU BLU
  • 270500Z 00000KT CAVOK 09/07 Q1033 NOSIG RMK BLU BLU
  • 270430Z 00000KT CAVOK 07/05 Q1033 NOSIG RMK BLU BLU
  • 270400Z 25001KT CAVOK 05/04 Q1032 NOSIG RMK BLU BLU
  • 270337Z 25002KT CAVOK 05/04 Q1033 RMK BLU

TAF TAF LKPD
Valido dal 27 a 06 ore il 28 a 06 ore UTC


270500Z 2706/2806 VRB02KT CAVOK
TEMPO 2707/2711 30006KT SCT035
TEMPO 2715/2718 36010KT
BECMG 2804/2806 33008KT 8000 RA BKN020 OVC040



MetMap, La meteo Aeronautica in un colpo d'occhio ! - Copyright ORBIFLY Dicembre 2007 - Disclaimer

ORBIFLY MET'MAP TEAM :

Programmazione e sviluppo : Alexandra Zaïnal
Concezione : Baudouin d'Aumeries
Aiuto per la programmazione : Marc-Olivier Méhu
Supporto tecnico e logistico : Manuel Goepfert
Aiuto per la traduzione : Arnaldo La Scala

Contatto : metmap@orbifly.com




FONTI E CREDITI :

   NOAA